sensor_id;sensor_type;location;lat;lon;timestamp;P1;durP1;ratioP1;P2;durP2;ratioP2
43048;SDS011;28673;44.412;11.918;2023-12-20T00:01:32;23.05;;;11.80;;
43048;SDS011;28673;44.412;11.918;2023-12-20T00:03:58;22.85;;;11.30;;
43048;SDS011;28673;44.412;11.918;2023-12-20T00:06:24;27.02;;;12.13;;
43048;SDS011;28673;44.412;11.918;2023-12-20T00:08:50;22.33;;;11.68;;
43048;SDS011;28673;44.412;11.918;2023-12-20T00:11:15;21.48;;;10.90;;
43048;SDS011;28673;44.412;11.918;2023-12-20T00:13:41;24.17;;;12.35;;
43048;SDS011;28673;44.412;11.918;2023-12-20T00:16:07;29.55;;;11.82;;
43048;SDS011;28673;44.412;11.918;2023-12-20T00:18:33;21.02;;;11.38;;
43048;SDS011;28673;44.412;11.918;2023-12-20T00:20:59;23.98;;;11.45;;
43048;SDS011;28673;44.412;11.918;2023-12-20T00:23:25;23.80;;;13.15;;
43048;SDS011;28673;44.412;11.918;2023-12-20T00:25:50;24.35;;;11.48;;
43048;SDS011;28673;44.412;11.918;2023-12-20T00:28:16;25.48;;;12.63;;
43048;SDS011;28673;44.412;11.918;2023-12-20T00:30:42;30.30;;;15.18;;
43048;SDS011;28673;44.412;11.918;2023-12-20T00:33:08;26.75;;;13.40;;
43048;SDS011;28673;44.412;11.918;2023-12-20T00:35:34;27.10;;;13.48;;
43048;SDS011;28673;44.412;11.918;2023-12-20T00:37:59;24.02;;;12.18;;
43048;SDS011;28673;44.412;11.918;2023-12-20T00:40:25;21.55;;;12.02;;
43048;SDS011;28673;44.412;11.918;2023-12-20T00:42:51;27.23;;;14.98;;
43048;SDS011;28673;44.412;11.918;2023-12-20T00:45:17;27.95;;;12.57;;
43048;SDS011;28673;44.412;11.918;2023-12-20T00:47:43;21.92;;;12.30;;
43048;SDS011;28673;44.412;11.918;2023-12-20T00:50:09;29.52;;;13.07;;
43048;SDS011;28673;44.412;11.918;2023-12-20T00:52:34;19.33;;;11.98;;
43048;SDS011;28673;44.412;11.918;2023-12-20T00:55:00;23.88;;;12.73;;
43048;SDS011;28673;44.412;11.918;2023-12-20T00:57:26;27.45;;;12.05;;
43048;SDS011;28673;44.412;11.918;2023-12-20T00:59:52;28.17;;;12.15;;
43048;SDS011;28673;44.412;11.918;2023-12-20T01:02:18;25.08;;;11.40;;
43048;SDS011;28673;44.412;11.918;2023-12-20T01:04:44;22.88;;;12.20;;
43048;SDS011;28673;44.412;11.918;2023-12-20T01:07:10;24.25;;;12.75;;
43048;SDS011;28673;44.412;11.918;2023-12-20T01:09:36;20.20;;;11.98;;
43048;SDS011;28673;44.412;11.918;2023-12-20T01:12:01;17.05;;;11.57;;
43048;SDS011;28673;44.412;11.918;2023-12-20T01:14:27;22.35;;;12.15;;
43048;SDS011;28673;44.412;11.918;2023-12-20T01:16:53;23.45;;;12.88;;
43048;SDS011;28673;44.412;11.918;2023-12-20T01:19:19;17.25;;;10.13;;
43048;SDS011;28673;44.412;11.918;2023-12-20T01:21:45;20.02;;;9.57;;
43048;SDS011;28673;44.412;11.918;2023-12-20T01:24:10;22.95;;;12.25;;
43048;SDS011;28673;44.412;11.918;2023-12-20T01:26:37;20.73;;;11.15;;
43048;SDS011;28673;44.412;11.918;2023-12-20T01:29:03;21.25;;;10.60;;
43048;SDS011;28673;44.412;11.918;2023-12-20T01:31:29;23.92;;;12.52;;
43048;SDS011;28673;44.412;11.918;2023-12-20T01:33:55;16.30;;;10.55;;
43048;SDS011;28673;44.412;11.918;2023-12-20T01:36:21;19.23;;;10.07;;
43048;SDS011;28673;44.412;11.918;2023-12-20T01:38:46;20.98;;;11.07;;
43048;SDS011;28673;44.412;11.918;2023-12-20T01:41:12;20.00;;;10.85;;
43048;SDS011;28673;44.412;11.918;2023-12-20T01:43:38;27.38;;;11.65;;
43048;SDS011;28673;44.412;11.918;2023-12-20T01:46:04;23.60;;;12.73;;
43048;SDS011;28673;44.412;11.918;2023-12-20T01:48:30;20.60;;;10.63;;
43048;SDS011;28673;44.412;11.918;2023-12-20T01:50:59;21.40;;;11.30;;
43048;SDS011;28673;44.412;11.918;2023-12-20T01:53:25;22.55;;;11.25;;
43048;SDS011;28673;44.412;11.918;2023-12-20T01:55:54;28.60;;;10.88;;
43048;SDS011;28673;44.412;11.918;2023-12-20T01:58:21;24.30;;;12.13;;
43048;SDS011;28673;44.412;11.918;2023-12-20T02:00:48;17.65;;;10.65;;
43048;SDS011;28673;44.412;11.918;2023-12-20T02:03:14;23.80;;;12.48;;
43048;SDS011;28673;44.412;11.918;2023-12-20T02:05:41;19.30;;;11.15;;
43048;SDS011;28673;44.412;11.918;2023-12-20T02:08:07;18.23;;;10.38;;
43048;SDS011;28673;44.412;11.918;2023-12-20T02:10:33;18.92;;;9.65;;
43048;SDS011;28673;44.412;11.918;2023-12-20T02:12:59;24.55;;;11.38;;
43048;SDS011;28673;44.412;11.918;2023-12-20T02:15:25;24.60;;;11.75;;
43048;SDS011;28673;44.412;11.918;2023-12-20T02:17:51;19.52;;;12.27;;
43048;SDS011;28673;44.412;11.918;2023-12-20T02:20:17;27.20;;;11.25;;
43048;SDS011;28673;44.412;11.918;2023-12-20T02:22:43;20.33;;;11.02;;
43048;SDS011;28673;44.412;11.918;2023-12-20T02:25:09;18.30;;;11.45;;
43048;SDS011;28673;44.412;11.918;2023-12-20T02:27:34;25.67;;;10.52;;
43048;SDS011;28673;44.412;11.918;2023-12-20T02:30:00;20.90;;;10.70;;
43048;SDS011;28673;44.412;11.918;2023-12-20T02:32:26;27.85;;;10.68;;
43048;SDS011;28673;44.412;11.918;2023-12-20T02:34:54;22.88;;;10.80;;
43048;SDS011;28673;44.412;11.918;2023-12-20T02:37:20;26.30;;;11.52;;
43048;SDS011;28673;44.412;11.918;2023-12-20T02:39:46;19.85;;;11.60;;
43048;SDS011;28673;44.412;11.918;2023-12-20T02:42:12;16.60;;;10.40;;
43048;SDS011;28673;44.412;11.918;2023-12-20T02:44:38;25.23;;;11.30;;
43048;SDS011;28673;44.412;11.918;2023-12-20T02:47:04;25.92;;;12.43;;
43048;SDS011;28673;44.412;11.918;2023-12-20T02:49:30;23.05;;;11.18;;
43048;SDS011;28673;44.412;11.918;2023-12-20T02:51:56;28.13;;;13.13;;
43048;SDS011;28673;44.412;11.918;2023-12-20T02:54:21;27.25;;;12.80;;
43048;SDS011;28673;44.412;11.918;2023-12-20T02:56:47;19.65;;;10.55;;
43048;SDS011;28673;44.412;11.918;2023-12-20T02:59:13;22.40;;;10.25;;
43048;SDS011;28673;44.412;11.918;2023-12-20T03:01:41;24.73;;;12.18;;
43048;SDS011;28673;44.412;11.918;2023-12-20T03:04:08;24.85;;;12.50;;
43048;SDS011;28673;44.412;11.918;2023-12-20T03:06:34;18.83;;;10.48;;
43048;SDS011;28673;44.412;11.918;2023-12-20T03:09:00;17.65;;;10.40;;
43048;SDS011;28673;44.412;11.918;2023-12-20T03:11:26;20.55;;;11.52;;
43048;SDS011;28673;44.412;11.918;2023-12-20T03:13:53;24.58;;;12.10;;
43048;SDS011;28673;44.412;11.918;2023-12-20T03:16:18;24.52;;;10.85;;
43048;SDS011;28673;44.412;11.918;2023-12-20T03:18:44;19.10;;;10.70;;
43048;SDS011;28673;44.412;11.918;2023-12-20T03:21:10;22.20;;;11.02;;
43048;SDS011;28673;44.412;11.918;2023-12-20T03:23:36;21.58;;;11.05;;
43048;SDS011;28673;44.412;11.918;2023-12-20T03:26:01;23.77;;;11.13;;
43048;SDS011;28673;44.412;11.918;2023-12-20T03:28:29;29.63;;;10.13;;
43048;SDS011;28673;44.412;11.918;2023-12-20T03:30:55;21.08;;;10.65;;
43048;SDS011;28673;44.412;11.918;2023-12-20T03:33:20;23.58;;;10.00;;
43048;SDS011;28673;44.412;11.918;2023-12-20T03:35:46;14.57;;;9.18;;
43048;SDS011;28673;44.412;11.918;2023-12-20T03:38:12;27.02;;;11.23;;
43048;SDS011;28673;44.412;11.918;2023-12-20T03:40:38;21.65;;;9.60;;
43048;SDS011;28673;44.412;11.918;2023-12-20T03:43:04;19.30;;;9.65;;
43048;SDS011;28673;44.412;11.918;2023-12-20T03:45:30;18.08;;;9.50;;
43048;SDS011;28673;44.412;11.918;2023-12-20T03:47:56;18.58;;;10.23;;
43048;SDS011;28673;44.412;11.918;2023-12-20T03:50:22;20.80;;;10.75;;
43048;SDS011;28673;44.412;11.918;2023-12-20T03:52:48;23.15;;;10.15;;
43048;SDS011;28673;44.412;11.918;2023-12-20T03:55:14;24.42;;;9.82;;
43048;SDS011;28673;44.412;11.918;2023-12-20T03:57:40;19.38;;;9.18;;
43048;SDS011;28673;44.412;11.918;2023-12-20T04:00:09;17.63;;;10.00;;
43048;SDS011;28673;44.412;11.918;2023-12-20T04:02:39;16.33;;;8.88;;
43048;SDS011;28673;44.412;11.918;2023-12-20T04:05:06;18.02;;;9.38;;
43048;SDS011;28673;44.412;11.918;2023-12-20T04:07:32;18.90;;;10.70;;
43048;SDS011;28673;44.412;11.918;2023-12-20T04:09:58;20.85;;;8.82;;
43048;SDS011;28673;44.412;11.918;2023-12-20T04:12:26;17.60;;;9.50;;
43048;SDS011;28673;44.412;11.918;2023-12-20T04:14:55;20.17;;;10.13;;
43048;SDS011;28673;44.412;11.918;2023-12-20T04:17:22;17.38;;;9.90;;
43048;SDS011;28673;44.412;11.918;2023-12-20T04:19:51;23.20;;;10.23;;
43048;SDS011;28673;44.412;11.918;2023-12-20T04:22:17;23.38;;;9.52;;
43048;SDS011;28673;44.412;11.918;2023-12-20T04:24:44;18.48;;;9.70;;
43048;SDS011;28673;44.412;11.918;2023-12-20T04:27:09;22.58;;;10.32;;
43048;SDS011;28673;44.412;11.918;2023-12-20T04:29:36;22.52;;;9.90;;
43048;SDS011;28673;44.412;11.918;2023-12-20T04:32:01;15.98;;;8.43;;
43048;SDS011;28673;44.412;11.918;2023-12-20T04:34:27;18.27;;;9.90;;
43048;SDS011;28673;44.412;11.918;2023-12-20T04:36:53;17.02;;;9.43;;
43048;SDS011;28673;44.412;11.918;2023-12-20T04:39:19;14.82;;;8.73;;
43048;SDS011;28673;44.412;11.918;2023-12-20T04:41:45;22.50;;;9.07;;
43048;SDS011;28673;44.412;11.918;2023-12-20T04:44:12;18.98;;;8.77;;
43048;SDS011;28673;44.412;11.918;2023-12-20T04:46:39;26.40;;;9.40;;
43048;SDS011;28673;44.412;11.918;2023-12-20T04:49:05;19.25;;;8.70;;
43048;SDS011;28673;44.412;11.918;2023-12-20T04:51:32;19.27;;;8.45;;
43048;SDS011;28673;44.412;11.918;2023-12-20T04:53:59;16.25;;;9.70;;
43048;SDS011;28673;44.412;11.918;2023-12-20T04:56:25;21.25;;;9.32;;
43048;SDS011;28673;44.412;11.918;2023-12-20T04:58:51;15.82;;;8.40;;
43048;SDS011;28673;44.412;11.918;2023-12-20T05:01:17;20.67;;;8.38;;
43048;SDS011;28673;44.412;11.918;2023-12-20T05:03:43;17.55;;;8.25;;
43048;SDS011;28673;44.412;11.918;2023-12-20T05:06:09;19.30;;;9.02;;
43048;SDS011;28673;44.412;11.918;2023-12-20T05:08:35;18.08;;;8.65;;
43048;SDS011;28673;44.412;11.918;2023-12-20T05:11:01;17.10;;;10.15;;
43048;SDS011;28673;44.412;11.918;2023-12-20T05:13:27;19.90;;;9.52;;
43048;SDS011;28673;44.412;11.918;2023-12-20T05:15:53;19.02;;;9.15;;
43048;SDS011;28673;44.412;11.918;2023-12-20T05:18:20;25.80;;;10.88;;
43048;SDS011;28673;44.412;11.918;2023-12-20T05:20:46;22.55;;;10.82;;
43048;SDS011;28673;44.412;11.918;2023-12-20T05:23:12;17.40;;;9.93;;
43048;SDS011;28673;44.412;11.918;2023-12-20T05:25:38;18.17;;;9.38;;
43048;SDS011;28673;44.412;11.918;2023-12-20T05:28:04;20.42;;;10.05;;
43048;SDS011;28673;44.412;11.918;2023-12-20T05:30:30;20.48;;;10.70;;
43048;SDS011;28673;44.412;11.918;2023-12-20T05:32:56;19.65;;;10.55;;
43048;SDS011;28673;44.412;11.918;2023-12-20T05:35:22;16.63;;;9.57;;
43048;SDS011;28673;44.412;11.918;2023-12-20T05:37:49;23.35;;;10.95;;
43048;SDS011;28673;44.412;11.918;2023-12-20T05:40:15;19.80;;;10.93;;
43048;SDS011;28673;44.412;11.918;2023-12-20T05:42:41;19.38;;;10.15;;
43048;SDS011;28673;44.412;11.918;2023-12-20T05:45:07;17.27;;;8.75;;
43048;SDS011;28673;44.412;11.918;2023-12-20T05:47:33;20.08;;;9.98;;
43048;SDS011;28673;44.412;11.918;2023-12-20T05:49:59;16.48;;;10.23;;
43048;SDS011;28673;44.412;11.918;2023-12-20T05:52:24;16.10;;;8.52;;
43048;SDS011;28673;44.412;11.918;2023-12-20T05:54:50;16.02;;;9.13;;
43048;SDS011;28673;44.412;11.918;2023-12-20T05:57:16;18.73;;;8.48;;
43048;SDS011;28673;44.412;11.918;2023-12-20T05:59:42;18.10;;;9.73;;
43048;SDS011;28673;44.412;11.918;2023-12-20T06:02:07;15.75;;;8.63;;
43048;SDS011;28673;44.412;11.918;2023-12-20T06:04:33;19.08;;;8.32;;
43048;SDS011;28673;44.412;11.918;2023-12-20T06:06:59;21.02;;;10.15;;
43048;SDS011;28673;44.412;11.918;2023-12-20T06:09:26;13.50;;;8.25;;
43048;SDS011;28673;44.412;11.918;2023-12-20T06:11:52;13.18;;;8.07;;
43048;SDS011;28673;44.412;11.918;2023-12-20T06:14:18;10.45;;;7.70;;
43048;SDS011;28673;44.412;11.918;2023-12-20T06:16:45;18.65;;;10.02;;
43048;SDS011;28673;44.412;11.918;2023-12-20T06:19:11;17.42;;;9.45;;
43048;SDS011;28673;44.412;11.918;2023-12-20T06:21:37;20.35;;;9.13;;
43048;SDS011;28673;44.412;11.918;2023-12-20T06:24:02;22.27;;;9.82;;
43048;SDS011;28673;44.412;11.918;2023-12-20T06:26:28;17.20;;;9.77;;
43048;SDS011;28673;44.412;11.918;2023-12-20T06:28:54;20.90;;;10.60;;
43048;SDS011;28673;44.412;11.918;2023-12-20T06:31:20;21.20;;;10.18;;
43048;SDS011;28673;44.412;11.918;2023-12-20T06:33:46;18.17;;;9.45;;
43048;SDS011;28673;44.412;11.918;2023-12-20T06:36:13;24.83;;;10.90;;
43048;SDS011;28673;44.412;11.918;2023-12-20T06:38:39;21.67;;;10.70;;
43048;SDS011;28673;44.412;11.918;2023-12-20T06:41:07;20.52;;;10.70;;
43048;SDS011;28673;44.412;11.918;2023-12-20T06:43:33;22.88;;;11.27;;
43048;SDS011;28673;44.412;11.918;2023-12-20T06:46:00;23.02;;;11.20;;
43048;SDS011;28673;44.412;11.918;2023-12-20T06:48:26;21.35;;;11.80;;
43048;SDS011;28673;44.412;11.918;2023-12-20T06:50:51;26.08;;;11.50;;
43048;SDS011;28673;44.412;11.918;2023-12-20T06:53:17;19.38;;;9.85;;
43048;SDS011;28673;44.412;11.918;2023-12-20T06:55:43;25.65;;;11.68;;
43048;SDS011;28673;44.412;11.918;2023-12-20T06:58:09;25.90;;;11.88;;
43048;SDS011;28673;44.412;11.918;2023-12-20T07:00:35;20.20;;;9.68;;
43048;SDS011;28673;44.412;11.918;2023-12-20T07:03:01;22.67;;;10.38;;
43048;SDS011;28673;44.412;11.918;2023-12-20T07:05:26;21.63;;;10.38;;
43048;SDS011;28673;44.412;11.918;2023-12-20T07:07:52;29.45;;;10.55;;
43048;SDS011;28673;44.412;11.918;2023-12-20T07:10:18;24.48;;;11.50;;
43048;SDS011;28673;44.412;11.918;2023-12-20T07:12:44;25.73;;;11.25;;
43048;SDS011;28673;44.412;11.918;2023-12-20T07:15:10;19.00;;;11.05;;
43048;SDS011;28673;44.412;11.918;2023-12-20T07:17:36;18.38;;;10.43;;
43048;SDS011;28673;44.412;11.918;2023-12-20T07:20:02;22.48;;;10.43;;
43048;SDS011;28673;44.412;11.918;2023-12-20T07:22:31;22.48;;;10.50;;
43048;SDS011;28673;44.412;11.918;2023-12-20T07:24:58;17.63;;;10.05;;
43048;SDS011;28673;44.412;11.918;2023-12-20T07:27:25;23.73;;;10.82;;
43048;SDS011;28673;44.412;11.918;2023-12-20T07:29:51;21.33;;;10.40;;
43048;SDS011;28673;44.412;11.918;2023-12-20T07:32:17;21.58;;;11.07;;
43048;SDS011;28673;44.412;11.918;2023-12-20T07:34:43;18.05;;;10.38;;
43048;SDS011;28673;44.412;11.918;2023-12-20T07:37:09;19.75;;;10.63;;
43048;SDS011;28673;44.412;11.918;2023-12-20T07:39:39;22.52;;;10.65;;
43048;SDS011;28673;44.412;11.918;2023-12-20T07:42:06;21.17;;;10.20;;
43048;SDS011;28673;44.412;11.918;2023-12-20T07:44:32;21.58;;;10.70;;
43048;SDS011;28673;44.412;11.918;2023-12-20T07:46:58;29.75;;;11.90;;
43048;SDS011;28673;44.412;11.918;2023-12-20T07:49:24;24.17;;;11.85;;
43048;SDS011;28673;44.412;11.918;2023-12-20T07:51:50;32.28;;;14.48;;
43048;SDS011;28673;44.412;11.918;2023-12-20T07:54:16;32.10;;;14.40;;
43048;SDS011;28673;44.412;11.918;2023-12-20T07:56:41;33.85;;;14.45;;
43048;SDS011;28673;44.412;11.918;2023-12-20T07:59:07;31.42;;;16.17;;
43048;SDS011;28673;44.412;11.918;2023-12-20T08:01:33;32.63;;;18.33;;
43048;SDS011;28673;44.412;11.918;2023-12-20T08:03:59;34.95;;;16.35;;
43048;SDS011;28673;44.412;11.918;2023-12-20T08:06:24;31.42;;;14.27;;
43048;SDS011;28673;44.412;11.918;2023-12-20T08:08:50;25.27;;;15.60;;
43048;SDS011;28673;44.412;11.918;2023-12-20T08:11:16;32.33;;;15.05;;
43048;SDS011;28673;44.412;11.918;2023-12-20T08:13:42;39.88;;;15.35;;
43048;SDS011;28673;44.412;11.918;2023-12-20T08:16:08;32.65;;;13.10;;
43048;SDS011;28673;44.412;11.918;2023-12-20T08:18:34;23.67;;;13.27;;
43048;SDS011;28673;44.412;11.918;2023-12-20T08:21:00;24.63;;;13.68;;
43048;SDS011;28673;44.412;11.918;2023-12-20T08:23:26;27.15;;;12.98;;
43048;SDS011;28673;44.412;11.918;2023-12-20T08:25:52;20.52;;;11.95;;
43048;SDS011;28673;44.412;11.918;2023-12-20T08:28:21;27.92;;;12.02;;
43048;SDS011;28673;44.412;11.918;2023-12-20T08:30:48;24.33;;;13.45;;
43048;SDS011;28673;44.412;11.918;2023-12-20T08:33:13;28.23;;;14.30;;
43048;SDS011;28673;44.412;11.918;2023-12-20T08:35:39;22.30;;;12.30;;
43048;SDS011;28673;44.412;11.918;2023-12-20T08:38:05;27.02;;;12.13;;
43048;SDS011;28673;44.412;11.918;2023-12-20T08:40:31;31.55;;;11.75;;
43048;SDS011;28673;44.412;11.918;2023-12-20T08:42:57;21.92;;;11.00;;
43048;SDS011;28673;44.412;11.918;2023-12-20T08:45:23;19.05;;;10.85;;
43048;SDS011;28673;44.412;11.918;2023-12-20T08:47:49;22.05;;;12.25;;
43048;SDS011;28673;44.412;11.918;2023-12-20T08:50:15;16.95;;;10.93;;
43048;SDS011;28673;44.412;11.918;2023-12-20T08:52:41;23.35;;;11.40;;
43048;SDS011;28673;44.412;11.918;2023-12-20T08:55:07;22.15;;;11.50;;
43048;SDS011;28673;44.412;11.918;2023-12-20T08:57:35;19.15;;;10.70;;
43048;SDS011;28673;44.412;11.918;2023-12-20T09:00:01;16.50;;;9.27;;
43048;SDS011;28673;44.412;11.918;2023-12-20T09:02:28;20.05;;;11.20;;
43048;SDS011;28673;44.412;11.918;2023-12-20T09:04:54;22.13;;;10.93;;
43048;SDS011;28673;44.412;11.918;2023-12-20T09:07:21;16.00;;;9.65;;
43048;SDS011;28673;44.412;11.918;2023-12-20T09:09:51;21.40;;;10.30;;
43048;SDS011;28673;44.412;11.918;2023-12-20T09:12:18;22.45;;;10.05;;
43048;SDS011;28673;44.412;11.918;2023-12-20T09:14:45;20.88;;;10.30;;
43048;SDS011;28673;44.412;11.918;2023-12-20T09:17:15;22.73;;;10.60;;
43048;SDS011;28673;44.412;11.918;2023-12-20T09:19:41;22.65;;;10.60;;
43048;SDS011;28673;44.412;11.918;2023-12-20T09:22:09;21.50;;;11.00;;
43048;SDS011;28673;44.412;11.918;2023-12-20T09:24:35;23.73;;;11.98;;
43048;SDS011;28673;44.412;11.918;2023-12-20T09:27:01;19.45;;;12.85;;
43048;SDS011;28673;44.412;11.918;2023-12-20T09:29:28;21.48;;;13.07;;
43048;SDS011;28673;44.412;11.918;2023-12-20T09:31:54;30.65;;;15.35;;
43048;SDS011;28673;44.412;11.918;2023-12-20T09:34:20;29.95;;;16.55;;
43048;SDS011;28673;44.412;11.918;2023-12-20T09:36:47;30.20;;;15.98;;
43048;SDS011;28673;44.412;11.918;2023-12-20T09:39:13;38.08;;;15.18;;
43048;SDS011;28673;44.412;11.918;2023-12-20T09:41:43;24.90;;;15.75;;
43048;SDS011;28673;44.412;11.918;2023-12-20T09:44:15;26.73;;;15.60;;
43048;SDS011;28673;44.412;11.918;2023-12-20T09:46:45;28.48;;;17.20;;
43048;SDS011;28673;44.412;11.918;2023-12-20T09:49:14;29.33;;;16.02;;
43048;SDS011;28673;44.412;11.918;2023-12-20T09:51:42;26.15;;;17.05;;
43048;SDS011;28673;44.412;11.918;2023-12-20T09:54:09;30.05;;;17.05;;
43048;SDS011;28673;44.412;11.918;2023-12-20T09:56:35;28.95;;;16.95;;
43048;SDS011;28673;44.412;11.918;2023-12-20T09:59:02;32.25;;;17.45;;
43048;SDS011;28673;44.412;11.918;2023-12-20T10:01:28;30.15;;;16.08;;
43048;SDS011;28673;44.412;11.918;2023-12-20T10:03:55;24.77;;;15.98;;
43048;SDS011;28673;44.412;11.918;2023-12-20T10:06:23;32.30;;;18.08;;
43048;SDS011;28673;44.412;11.918;2023-12-20T10:08:49;33.97;;;17.67;;
43048;SDS011;28673;44.412;11.918;2023-12-20T10:11:15;33.95;;;19.10;;
43048;SDS011;28673;44.412;11.918;2023-12-20T10:13:41;32.83;;;18.17;;
43048;SDS011;28673;44.412;11.918;2023-12-20T10:16:07;35.75;;;18.73;;
43048;SDS011;28673;44.412;11.918;2023-12-20T10:18:33;35.92;;;20.05;;
43048;SDS011;28673;44.412;11.918;2023-12-20T10:21:00;34.20;;;21.75;;
43048;SDS011;28673;44.412;11.918;2023-12-20T10:23:25;33.15;;;21.42;;
43048;SDS011;28673;44.412;11.918;2023-12-20T10:25:58;37.40;;;22.63;;
43048;SDS011;28673;44.412;11.918;2023-12-20T10:28:25;37.60;;;23.00;;
43048;SDS011;28673;44.412;11.918;2023-12-20T10:30:53;42.20;;;22.73;;
43048;SDS011;28673;44.412;11.918;2023-12-20T10:33:28;43.58;;;22.67;;
43048;SDS011;28673;44.412;11.918;2023-12-20T10:35:57;44.03;;;23.52;;
43048;SDS011;28673;44.412;11.918;2023-12-20T10:38:23;33.72;;;20.90;;
43048;SDS011;28673;44.412;11.918;2023-12-20T10:40:49;34.17;;;22.05;;
43048;SDS011;28673;44.412;11.918;2023-12-20T10:43:19;25.85;;;16.80;;
43048;SDS011;28673;44.412;11.918;2023-12-20T10:45:46;44.28;;;23.15;;
43048;SDS011;28673;44.412;11.918;2023-12-20T10:48:12;34.72;;;20.75;;
43048;SDS011;28673;44.412;11.918;2023-12-20T10:50:38;38.10;;;22.50;;
43048;SDS011;28673;44.412;11.918;2023-12-20T10:53:03;39.58;;;22.08;;
43048;SDS011;28673;44.412;11.918;2023-12-20T10:55:29;38.00;;;21.67;;
43048;SDS011;28673;44.412;11.918;2023-12-20T10:58:00;38.97;;;21.35;;
43048;SDS011;28673;44.412;11.918;2023-12-20T11:00:31;34.75;;;21.98;;
43048;SDS011;28673;44.412;11.918;2023-12-20T11:03:01;54.92;;;22.30;;
43048;SDS011;28673;44.412;11.918;2023-12-20T11:08:09;41.33;;;23.58;;
43048;SDS011;28673;44.412;11.918;2023-12-20T11:10:48;42.08;;;25.30;;
43048;SDS011;28673;44.412;11.918;2023-12-20T11:13:48;46.08;;;26.38;;
43048;SDS011;28673;44.412;11.918;2023-12-20T11:16:33;43.67;;;25.42;;
43048;SDS011;28673;44.412;11.918;2023-12-20T11:19:04;52.45;;;26.80;;
43048;SDS011;28673;44.412;11.918;2023-12-20T11:21:30;48.60;;;24.30;;
43048;SDS011;28673;44.412;11.918;2023-12-20T11:23:56;48.28;;;26.25;;
43048;SDS011;28673;44.412;11.918;2023-12-20T11:26:26;43.85;;;25.83;;
43048;SDS011;28673;44.412;11.918;2023-12-20T11:29:29;51.13;;;25.65;;
43048;SDS011;28673;44.412;11.918;2023-12-20T11:31:59;44.65;;;24.45;;
43048;SDS011;28673;44.412;11.918;2023-12-20T11:34:33;48.08;;;26.40;;
43048;SDS011;28673;44.412;11.918;2023-12-20T11:37:01;40.80;;;23.55;;
43048;SDS011;28673;44.412;11.918;2023-12-20T11:39:27;41.25;;;23.92;;
43048;SDS011;28673;44.412;11.918;2023-12-20T11:41:54;46.33;;;25.13;;
43048;SDS011;28673;44.412;11.918;2023-12-20T11:44:22;49.40;;;25.27;;
43048;SDS011;28673;44.412;11.918;2023-12-20T11:46:50;47.70;;;23.33;;
43048;SDS011;28673;44.412;11.918;2023-12-20T11:49:16;44.42;;;24.95;;
43048;SDS011;28673;44.412;11.918;2023-12-20T11:51:41;45.20;;;25.08;;
43048;SDS011;28673;44.412;11.918;2023-12-20T11:54:08;41.58;;;24.08;;
43048;SDS011;28673;44.412;11.918;2023-12-20T11:56:36;44.80;;;25.38;;
43048;SDS011;28673;44.412;11.918;2023-12-20T11:59:02;43.97;;;25.13;;
43048;SDS011;28673;44.412;11.918;2023-12-20T12:01:28;38.58;;;23.25;;
43048;SDS011;28673;44.412;11.918;2023-12-20T12:04:03;41.92;;;25.98;;
43048;SDS011;28673;44.412;11.918;2023-12-20T12:06:30;41.85;;;25.73;;
43048;SDS011;28673;44.412;11.918;2023-12-20T12:08:56;51.13;;;27.05;;
43048;SDS011;28673;44.412;11.918;2023-12-20T12:11:22;43.80;;;26.55;;
43048;SDS011;28673;44.412;11.918;2023-12-20T12:13:48;57.95;;;28.60;;
43048;SDS011;28673;44.412;11.918;2023-12-20T12:16:20;48.00;;;27.92;;
43048;SDS011;28673;44.412;11.918;2023-12-20T12:18:46;52.42;;;29.80;;
43048;SDS011;28673;44.412;11.918;2023-12-20T12:21:20;56.08;;;31.17;;
43048;SDS011;28673;44.412;11.918;2023-12-20T12:23:45;49.17;;;29.75;;
43048;SDS011;28673;44.412;11.918;2023-12-20T12:26:11;54.03;;;32.42;;
43048;SDS011;28673;44.412;11.918;2023-12-20T12:28:39;55.40;;;31.27;;
43048;SDS011;28673;44.412;11.918;2023-12-20T12:31:06;54.42;;;32.20;;
43048;SDS011;28673;44.412;11.918;2023-12-20T12:33:32;54.97;;;32.80;;
43048;SDS011;28673;44.412;11.918;2023-12-20T12:35:59;51.10;;;32.22;;
43048;SDS011;28673;44.412;11.918;2023-12-20T12:38:26;57.55;;;33.88;;
43048;SDS011;28673;44.412;11.918;2023-12-20T12:40:52;58.65;;;35.78;;
43048;SDS011;28673;44.412;11.918;2023-12-20T12:43:20;59.35;;;34.63;;
43048;SDS011;28673;44.412;11.918;2023-12-20T12:45:47;58.65;;;32.78;;
43048;SDS011;28673;44.412;11.918;2023-12-20T12:48:14;57.13;;;33.95;;
43048;SDS011;28673;44.412;11.918;2023-12-20T12:50:40;63.63;;;35.03;;
43048;SDS011;28673;44.412;11.918;2023-12-20T12:53:05;56.25;;;32.20;;
43048;SDS011;28673;44.412;11.918;2023-12-20T12:55:31;55.47;;;32.70;;
43048;SDS011;28673;44.412;11.918;2023-12-20T12:57:58;52.83;;;32.03;;
43048;SDS011;28673;44.412;11.918;2023-12-20T13:00:24;60.72;;;33.05;;
43048;SDS011;28673;44.412;11.918;2023-12-20T13:02:51;48.25;;;31.77;;
43048;SDS011;28673;44.412;11.918;2023-12-20T13:05:17;46.72;;;29.05;;
43048;SDS011;28673;44.412;11.918;2023-12-20T13:07:43;55.20;;;30.75;;
43048;SDS011;28673;44.412;11.918;2023-12-20T13:10:10;57.42;;;31.33;;
43048;SDS011;28673;44.412;11.918;2023-12-20T13:12:36;51.92;;;28.90;;
43048;SDS011;28673;44.412;11.918;2023-12-20T13:15:02;52.60;;;28.60;;
43048;SDS011;28673;44.412;11.918;2023-12-20T13:17:31;50.28;;;29.48;;
43048;SDS011;28673;44.412;11.918;2023-12-20T13:19:57;50.15;;;30.10;;
43048;SDS011;28673;44.412;11.918;2023-12-20T13:22:22;47.63;;;26.83;;
43048;SDS011;28673;44.412;11.918;2023-12-20T13:24:49;46.67;;;27.00;;
43048;SDS011;28673;44.412;11.918;2023-12-20T13:27:14;45.92;;;27.77;;
43048;SDS011;28673;44.412;11.918;2023-12-20T13:29:40;45.83;;;24.60;;
43048;SDS011;28673;44.412;11.918;2023-12-20T13:32:06;48.00;;;25.98;;
43048;SDS011;28673;44.412;11.918;2023-12-20T13:34:32;42.53;;;25.98;;
43048;SDS011;28673;44.412;11.918;2023-12-20T13:36:58;40.90;;;25.02;;
43048;SDS011;28673;44.412;11.918;2023-12-20T13:39:23;49.28;;;27.92;;
43048;SDS011;28673;44.412;11.918;2023-12-20T13:41:49;45.75;;;25.25;;
43048;SDS011;28673;44.412;11.918;2023-12-20T13:44:15;47.53;;;26.63;;
43048;SDS011;28673;44.412;11.918;2023-12-20T13:46:41;46.50;;;28.52;;
43048;SDS011;28673;44.412;11.918;2023-12-20T13:49:07;49.03;;;29.77;;
43048;SDS011;28673;44.412;11.918;2023-12-20T13:51:33;54.78;;;27.42;;
43048;SDS011;28673;44.412;11.918;2023-12-20T13:53:58;50.45;;;28.90;;
43048;SDS011;28673;44.412;11.918;2023-12-20T13:56:25;45.33;;;27.02;;
43048;SDS011;28673;44.412;11.918;2023-12-20T13:58:51;54.92;;;27.73;;
43048;SDS011;28673;44.412;11.918;2023-12-20T14:01:16;51.00;;;28.00;;
43048;SDS011;28673;44.412;11.918;2023-12-20T14:03:42;55.15;;;29.52;;
43048;SDS011;28673;44.412;11.918;2023-12-20T14:06:08;66.30;;;30.08;;
43048;SDS011;28673;44.412;11.918;2023-12-20T14:08:34;45.90;;;26.55;;
43048;SDS011;28673;44.412;11.918;2023-12-20T14:11:01;44.50;;;26.75;;